Time,TemperatureF,DewpointF,PressureIn,WindDirection,WindDirectionDegrees,WindSpeedMPH,WindSpeedGustMPH,Humidity,HourlyPrecipIn,Conditions,Clouds,dailyrainin,SoftwareType,DateUTC
2013-05-10 00:01:00,63.2,57.6,28.51,SSW,196,2.3,2.3,82,0.00,CLR,CLR,0.00,WeatherDisplay:10.37,2013-05-10 04:01:00,
2013-05-10 00:02:00,63.1,57.5,28.51,SSW,196,2.3,2.3,82,0.00,CLR,CLR,0.00,WeatherDisplay:10.37,2013-05-10 04:02:00,
2013-05-10 00:04:00,63.0,57.4,28.51,SSW,196,1.2,1.2,82,0.00,CLR,CLR,0.00,WeatherDisplay:10.37,2013-05-10 04:04:00,
2013-05-10 00:09:00,62.7,57.5,28.51,SSW,196,2.3,2.3,83,0.00,CLR,CLR,0.00,WeatherDisplay:10.37,2013-05-10 04:09:00,
2013-05-10 00:14:00,62.6,57.4,28.51,West,260,2.3,2.3,83,0.00,CLR,CLR,0.00,WeatherDisplay:10.37,2013-05-10 04:14:00,
2013-05-10 00:19:00,62.4,57.2,28.51,West,259,3.5,3.5,83,0.00,CLR,CLR,0.00,WeatherDisplay:10.37,2013-05-10 04:19:00,
2013-05-10 00:24:00,62.2,57.3,28.51,West,260,3.5,3.5,84,0.00,CLR,CLR,0.00,WeatherDisplay:10.37,2013-05-10 04:24:00,
2013-05-10 00:29:00,61.9,57.0,28.51,West,260,3.5,3.5,84,0.00,CLR,CLR,0.00,WeatherDisplay:10.37,2013-05-10 04:29:00,
2013-05-10 00:35:00,61.7,57.1,28.52,West,260,3.5,3.5,85,0.00,CLR,CLR,0.00,WeatherDisplay:10.37,2013-05-10 04:35:00,
2013-05-10 00:40:00,61.4,57.2,28.52,West,260,3.5,3.5,86,0.00,CLR,CLR,0.00,WeatherDisplay:10.37,2013-05-10 04:40:00,
2013-05-10 00:45:00,61.2,57.0,28.51,West,260,2.3,2.3,86,0.00,CLR,CLR,0.00,WeatherDisplay:10.37,2013-05-10 04:45:00,
2013-05-10 00:50:00,61.1,56.9,28.51,West,260,3.5,3.5,86,0.00,CLR,CLR,0.00,WeatherDisplay:10.37,2013-05-10 04:50:00,
2013-05-10 00:55:00,61.1,56.9,28.51,West,260,3.5,3.5,86,0.00,CLR,CLR,0.00,WeatherDisplay:10.37,2013-05-10 04:55:00,
2013-05-10 01:01:00,61.0,56.8,28.52,West,260,2.3,2.3,86,0.00,CLR,CLR,0.00,WeatherDisplay:10.37,2013-05-10 05:01:00,
2013-05-10 01:06:00,60.9,56.7,28.51,West,260,3.5,3.5,86,0.00,CLR,CLR,0.00,WeatherDisplay:10.37,2013-05-10 05:06:00,
2013-05-10 01:11:00,60.7,56.8,28.51,West,267,3.5,3.5,87,0.00,CLR,CLR,0.00,WeatherDisplay:10.37,2013-05-10 05:11:00,
2013-05-10 01:16:00,60.6,56.7,28.51,West,261,3.5,3.5,87,0.00,CLR,CLR,0.00,WeatherDisplay:10.37,2013-05-10 05:16:00,
2013-05-10 01:22:00,60.4,56.8,28.50,West,260,3.5,3.5,88,0.00,CLR,CLR,0.00,WeatherDisplay:10.37,2013-05-10 05:22:00,
2013-05-10 01:27:00,60.2,56.6,28.50,WSW,257,4.6,4.6,88,0.00,CLR,CLR,0.00,WeatherDisplay:10.37,2013-05-10 05:27:00,
2013-05-10 01:32:00,60.1,56.8,28.50,West,259,4.0,4.0,89,0.00,CLR,CLR,0.00,WeatherDisplay:10.37,2013-05-10 05:32:00,
2013-05-10 01:37:00,60.0,56.4,28.51,WSW,257,5.8,5.8,88,0.00,CLR,CLR,0.00,WeatherDisplay:10.37,2013-05-10 05:37:00,
2013-05-10 01:42:00,59.9,56.6,28.50,WSW,254,4.6,4.6,89,0.00,CLR,CLR,0.00,WeatherDisplay:10.37,2013-05-10 05:42:00,
2013-05-10 01:48:00,59.7,56.8,28.50,WSW,257,6.0,6.0,90,0.00,CLR,CLR,0.00,WeatherDisplay:10.37,2013-05-10 05:48:00,
2013-05-10 01:53:00,59.6,56.7,28.50,WSW,253,5.8,5.8,90,0.00,CLR,CLR,0.00,WeatherDisplay:10.37,2013-05-10 05:53:00,
2013-05-10 01:58:00,59.6,56.7,28.50,WSW,253,5.8,5.8,90,0.00,CLR,CLR,0.00,WeatherDisplay:10.37,2013-05-10 05:58:00,
2013-05-10 02:03:00,59.7,56.8,28.50,West,259,5.8,5.8,90,0.00,CLR,CLR,0.00,WeatherDisplay:10.37,2013-05-10 06:03:00,
2013-05-10 02:08:00,59.7,56.8,28.50,WSW,240,5.8,5.8,90,0.00,CLR,CLR,0.00,WeatherDisplay:10.37,2013-05-10 06:08:00,
2013-05-10 02:13:00,59.7,56.8,28.50,WSW,254,5.8,5.8,90,0.00,CLR,CLR,0.00,WeatherDisplay:10.37,2013-05-10 06:13:00,
2013-05-10 02:19:00,59.6,56.7,28.50,WSW,254,5.8,5.8,90,0.00,CLR,CLR,0.00,WeatherDisplay:10.37,2013-05-10 06:19:00,
2013-05-10 02:24:00,59.5,56.6,28.50,West,266,4.6,4.6,90,0.00,CLR,CLR,0.00,WeatherDisplay:10.37,2013-05-10 06:24:00,
2013-05-10 02:29:00,59.6,56.7,28.50,WSW,255,3.5,3.5,90,0.00,CLR,CLR,0.00,WeatherDisplay:10.37,2013-05-10 06:29:00,
2013-05-10 02:34:00,59.6,56.7,28.50,WSW,251,3.5,3.5,90,0.00,CLR,CLR,0.00,WeatherDisplay:10.37,2013-05-10 06:34:00,
2013-05-10 02:39:00,59.5,56.6,28.50,West,267,5.0,5.0,90,0.00,CLR,CLR,0.00,WeatherDisplay:10.37,2013-05-10 06:39:00,
2013-05-10 02:44:00,59.5,56.6,28.50,West,266,4.6,4.6,90,0.00,CLR,CLR,0.00,WeatherDisplay:10.37,2013-05-10 06:44:00,
2013-05-10 02:49:00,59.3,56.4,28.50,West,261,5.0,5.0,90,0.00,CLR,CLR,0.00,WeatherDisplay:10.37,2013-05-10 06:49:00,
2013-05-10 02:55:00,59.3,56.4,28.50,WSW,250,4.6,4.6,90,0.00,CLR,CLR,0.00,WeatherDisplay:10.37,2013-05-10 06:55:00,
2013-05-10 03:00:00,59.3,56.4,28.50,WSW,249,3.5,3.5,90,0.00,CLR,CLR,0.00,WeatherDisplay:10.37,2013-05-10 07:00:00,
2013-05-10 03:05:00,59.3,56.7,28.50,WSW,247,4.6,4.6,91,0.00,CLR,CLR,0.00,WeatherDisplay:10.37,2013-05-10 07:05:00,
2013-05-10 03:10:00,59.5,56.6,28.50,WSW,241,3.5,3.5,90,0.00,CLR,CLR,0.00,WeatherDisplay:10.37,2013-05-10 07:10:00,
2013-05-10 03:16:00,59.7,56.8,28.50,WSW,238,3.5,3.5,90,0.00,CLR,CLR,0.00,WeatherDisplay:10.37,2013-05-10 07:16:00,
2013-05-10 03:21:00,59.7,56.8,28.50,WSW,238,3.5,3.5,90,0.00,CLR,CLR,0.00,WeatherDisplay:10.37,2013-05-10 07:21:00,
2013-05-10 03:26:00,59.9,56.6,28.50,SW,229,4.0,4.0,89,0.00,CLR,CLR,0.00,WeatherDisplay:10.37,2013-05-10 07:26:00,
2013-05-10 03:31:00,60.2,56.6,28.50,West,267,4.6,4.6,88,0.00,CLR,CLR,0.00,WeatherDisplay:10.37,2013-05-10 07:31:00,
2013-05-10 03:36:00,60.4,56.8,28.50,West,266,3.5,3.5,88,0.00,CLR,CLR,0.00,WeatherDisplay:10.37,2013-05-10 07:36:00,
2013-05-10 03:41:00,60.6,56.7,28.50,West,266,3.5,3.5,87,0.00,CLR,CLR,0.00,WeatherDisplay:10.37,2013-05-10 07:41:00,
2013-05-10 03:46:00,60.6,56.7,28.50,West,266,3.5,3.5,87,0.00,CLR,CLR,0.00,WeatherDisplay:10.37,2013-05-10 07:46:00,
2013-05-10 03:51:00,60.4,56.8,28.50,West,266,3.5,3.5,88,0.00,CLR,CLR,0.00,WeatherDisplay:10.37,2013-05-10 07:51:00,
2013-05-10 03:56:00,60.2,56.9,28.50,SW,223,3.5,3.5,89,0.00,CLR,CLR,0.00,WeatherDisplay:10.37,2013-05-10 07:56:00,
2013-05-10 04:01:00,59.9,57.0,28.50,SW,223,4.6,4.6,90,0.00,CLR,CLR,0.00,WeatherDisplay:10.37,2013-05-10 08:01:00,
2013-05-10 04:06:00,59.6,56.7,28.49,WSW,249,3.5,3.5,90,0.00,CLR,CLR,0.00,WeatherDisplay:10.37,2013-05-10 08:06:00,
2013-05-10 04:12:00,59.6,56.7,28.49,WSW,243,5.8,5.8,90,0.00,CLR,CLR,0.00,WeatherDisplay:10.37,2013-05-10 08:12:00,
2013-05-10 04:17:00,59.5,56.6,28.49,West,260,6.9,6.9,90,0.00,CLR,CLR,0.00,WeatherDisplay:10.37,2013-05-10 08:17:00,
2013-05-10 04:22:00,59.6,56.7,28.49,West,264,8.1,8.1,90,0.00,CLR,CLR,0.00,WeatherDisplay:10.37,2013-05-10 08:22:00,
2013-05-10 04:27:00,59.6,56.7,28.49,WSW,255,6.9,6.9,90,0.00,CLR,CLR,0.00,WeatherDisplay:10.37,2013-05-10 08:27:00,
2013-05-10 04:32:00,59.6,56.7,28.49,West,267,5.8,5.8,90,0.00,CLR,CLR,0.00,WeatherDisplay:10.37,2013-05-10 08:32:00,
2013-05-10 04:38:00,59.5,56.6,28.49,WSW,253,5.8,5.8,90,0.00,CLR,CLR,0.00,WeatherDisplay:10.37,2013-05-10 08:38:00,
2013-05-10 04:43:00,59.4,56.5,28.48,WSW,253,3.5,3.5,90,0.00,CLR,CLR,0.00,WeatherDisplay:10.37,2013-05-10 08:43:00,
2013-05-10 04:48:00,59.4,56.5,28.48,WSW,253,3.5,3.5,90,0.00,CLR,CLR,0.00,WeatherDisplay:10.37,2013-05-10 08:48:00,
2013-05-10 04:53:00,59.4,56.5,28.48,WSW,253,3.5,3.5,90,0.00,CLR,CLR,0.00,WeatherDisplay:10.37,2013-05-10 08:53:00,
2013-05-10 04:58:00,59.5,56.6,28.49,WSW,252,3.5,3.5,90,0.00,CLR,CLR,0.00,WeatherDisplay:10.37,2013-05-10 08:58:00,
2013-05-10 05:04:00,59.6,56.7,28.49,WSW,249,3.5,3.5,90,0.00,CLR,CLR,0.00,WeatherDisplay:10.37,2013-05-10 09:04:00,
2013-05-10 05:09:00,59.6,56.7,28.48,WSW,249,2.3,2.3,90,0.00,CLR,CLR,0.00,WeatherDisplay:10.37,2013-05-10 09:09:00,
2013-05-10 05:14:00,59.5,56.6,28.48,WSW,249,2.3,2.3,90,0.00,CLR,CLR,0.00,WeatherDisplay:10.37,2013-05-10 09:14:00,
2013-05-10 05:19:00,59.3,56.4,28.48,WSW,249,3.5,3.5,90,0.00,CLR,CLR,0.00,WeatherDisplay:10.37,2013-05-10 09:19:00,
2013-05-10 05:24:00,59.0,56.4,28.48,WSW,249,3.5,3.5,91,0.00,CLR,CLR,0.00,WeatherDisplay:10.37,2013-05-10 09:24:00,
2013-05-10 05:30:00,58.8,56.5,28.49,WSW,249,3.5,3.5,92,0.00,CLR,CLR,0.00,WeatherDisplay:10.37,2013-05-10 09:30:00,
2013-05-10 05:35:00,58.6,56.3,28.48,WSW,249,3.5,3.5,92,0.00,CLR,CLR,0.00,WeatherDisplay:10.37,2013-05-10 09:35:00,
2013-05-10 05:40:00,58.3,56.3,28.49,WSW,249,3.5,3.5,93,0.00,CLR,CLR,0.00,WeatherDisplay:10.37,2013-05-10 09:40:00,
2013-05-10 05:45:00,58.1,56.1,28.48,WSW,249,3.5,3.5,93,0.00,CLR,CLR,0.00,WeatherDisplay:10.37,2013-05-10 09:45:00,
2013-05-10 05:50:00,58.0,56.3,28.49,SW,214,5.8,5.8,94,0.00,CLR,CLR,0.00,WeatherDisplay:10.37,2013-05-10 09:50:00,
2013-05-10 05:55:00,58.1,56.4,28.50,SW,223,3.5,3.5,94,0.00,CLR,CLR,0.00,WeatherDisplay:10.37,2013-05-10 09:55:00,
2013-05-10 06:01:00,58.0,56.3,28.50,WSW,251,5.0,5.0,94,0.00,CLR,CLR,0.00,WeatherDisplay:10.37,2013-05-10 10:01:00,
2013-05-10 06:06:00,57.8,56.1,28.50,WNW,287,5.8,5.8,94,0.00,CLR,CLR,0.00,WeatherDisplay:10.37,2013-05-10 10:06:00,
2013-05-10 06:11:00,57.7,56.3,28.49,West,277,3.5,3.5,95,0.00,CLR,CLR,0.00,WeatherDisplay:10.37,2013-05-10 10:11:00,
2013-05-10 06:16:00,57.7,55.7,28.60,West,260,3.5,3.5,93,0.00,CLR,CLR,0.00,WeatherDisplay:10.37,2013-05-10 10:16:00,
2013-05-10 06:21:00,57.7,55.7,28.59,WSW,257,3.5,3.5,93,0.00,CLR,CLR,0.00,WeatherDisplay:10.37,2013-05-10 10:21:00,
2013-05-10 06:27:00,57.7,55.7,28.62,WSW,241,5.8,5.8,93,0.00,CLR,CLR,0.00,WeatherDisplay:10.37,2013-05-10 10:27:00,
2013-05-10 06:32:00,57.8,56.1,28.61,SW,233,3.5,3.5,94,0.00,CLR,CLR,0.00,WeatherDisplay:10.37,2013-05-10 10:32:00,
2013-05-10 06:37:00,58.0,56.0,28.59,SW,227,3.5,3.5,93,0.00,CLR,CLR,0.00,WeatherDisplay:10.37,2013-05-10 10:37:00,
2013-05-10 06:42:00,58.2,56.2,28.61,WSW,238,3.5,3.5,93,0.00,CLR,CLR,0.00,WeatherDisplay:10.37,2013-05-10 10:42:00,
2013-05-10 06:47:00,58.4,56.1,28.60,WSW,239,4.6,4.6,92,0.00,CLR,CLR,0.00,WeatherDisplay:10.37,2013-05-10 10:47:00,
2013-05-10 06:53:00,58.7,56.1,28.60,WSW,240,3.5,3.5,91,0.00,CLR,CLR,0.00,WeatherDisplay:10.37,2013-05-10 10:53:00,
2013-05-10 06:58:00,59.0,56.1,28.58,SW,233,3.5,3.5,90,0.00,CLR,CLR,0.00,WeatherDisplay:10.37,2013-05-10 10:58:00,
2013-05-10 07:03:00,59.4,56.5,28.61,SW,228,3.5,3.5,90,0.00,CLR,CLR,0.00,WeatherDisplay:10.37,2013-05-10 11:03:00,
2013-05-10 07:08:00,60.0,56.4,28.58,SW,228,3.5,3.5,88,0.00,CLR,CLR,0.00,WeatherDisplay:10.37,2013-05-10 11:08:00,
2013-05-10 07:13:00,60.7,56.5,28.59,SW,228,3.5,3.5,86,0.00,CLR,CLR,0.00,WeatherDisplay:10.37,2013-05-10 11:13:00,
2013-05-10 07:18:00,61.3,57.1,28.58,SW,228,3.5,3.5,86,0.00,CLR,CLR,0.00,WeatherDisplay:10.37,2013-05-10 11:18:00,
2013-05-10 07:24:00,61.9,57.3,28.61,SW,227,2.3,2.3,85,0.00,CLR,CLR,0.00,WeatherDisplay:10.37,2013-05-10 11:24:00,
2013-05-10 07:29:00,62.6,57.0,28.59,SW,221,3.5,3.5,82,0.00,CLR,CLR,0.00,WeatherDisplay:10.37,2013-05-10 11:29:00,
2013-05-10 07:34:00,63.4,57.8,28.62,SW,221,3.5,3.5,82,0.00,CLR,CLR,0.00,WeatherDisplay:10.37,2013-05-10 11:34:00,
2013-05-10 07:39:00,64.4,58.4,28.61,SW,221,2.3,2.3,81,0.00,CLR,CLR,0.00,WeatherDisplay:10.37,2013-05-10 11:39:00,
2013-05-10 07:44:00,65.4,60.1,28.61,SW,221,1.0,1.0,83,0.00,CLR,CLR,0.00,WeatherDisplay:10.37,2013-05-10 11:44:00,
2013-05-10 07:49:00,66.5,60.5,28.61,SW,221,2.0,2.0,81,0.00,CLR,CLR,0.00,WeatherDisplay:10.37,2013-05-10 11:49:00,
2013-05-10 07:54:00,67.6,61.6,28.62,SW,221,2.3,2.3,81,0.00,CLR,CLR,0.00,WeatherDisplay:10.37,2013-05-10 11:54:00,
2013-05-10 07:59:00,68.5,62.4,28.61,SW,221,2.3,2.3,81,0.00,CLR,CLR,0.00,WeatherDisplay:10.37,2013-05-10 11:59:00,
2013-05-10 08:05:00,69.4,63.3,28.61,SW,221,0.0,0.0,81,0.00,CLR,CLR,0.00,WeatherDisplay:10.37,2013-05-10 12:05:00,
2013-05-10 08:10:00,70.2,64.1,28.61,SW,221,0.0,0.0,81,0.00,CLR,CLR,0.00,WeatherDisplay:10.37,2013-05-10 12:10:00,
2013-05-10 08:15:00,71.1,65.0,28.59,SW,221,0.0,0.0,81,0.00,CLR,CLR,0.00,WeatherDisplay:10.37,2013-05-10 12:15:00,
2013-05-10 08:20:00,71.6,65.1,28.58,SW,221,2.3,2.3,80,0.00,CLR,CLR,0.00,WeatherDisplay:10.37,2013-05-10 12:20:00,
2013-05-10 08:25:00,72.0,65.5,28.57,SW,221,2.3,2.3,80,0.00,CLR,CLR,0.00,WeatherDisplay:10.37,2013-05-10 12:25:00,
2013-05-10 08:31:00,72.3,65.8,28.62,SW,221,2.3,2.3,80,0.00,CLR,CLR,0.00,WeatherDisplay:10.37,2013-05-10 12:31:00,
2013-05-10 08:36:00,73.0,66.5,28.59,SW,221,1.2,1.2,80,0.00,CLR,CLR,0.00,WeatherDisplay:10.37,2013-05-10 12:36:00,
2013-05-10 08:41:00,74.0,66.7,28.61,SW,221,0.0,0.0,78,0.00,CLR,CLR,0.00,WeatherDisplay:10.37,2013-05-10 12:41:00,
2013-05-10 08:46:00,74.7,67.4,28.60,SW,221,2.3,2.3,78,0.00,CLR,CLR,0.00,WeatherDisplay:10.37,2013-05-10 12:46:00,
2013-05-10 08:51:00,75.8,67.7,28.61,SW,221,3.5,3.5,76,0.00,CLR,CLR,0.00,WeatherDisplay:10.37,2013-05-10 12:51:00,
2013-05-10 08:57:00,76.3,66.2,28.62,SW,221,2.3,2.3,71,0.00,CLR,CLR,0.00,WeatherDisplay:10.37,2013-05-10 12:57:00,
2013-05-10 09:02:00,76.8,68.3,28.64,SW,221,2.3,2.3,75,0.00,CLR,CLR,0.00,WeatherDisplay:10.37,2013-05-10 13:02:00,
2013-05-10 09:07:00,77.6,67.9,28.61,SW,221,3.5,3.5,72,0.00,CLR,CLR,0.00,WeatherDisplay:10.37,2013-05-10 13:07:00,
2013-05-10 09:12:00,77.9,67.3,28.64,SW,221,3.5,3.5,70,0.00,CLR,CLR,0.00,WeatherDisplay:10.37,2013-05-10 13:12:00,
2013-05-10 09:17:00,78.4,68.2,28.57,SW,221,2.3,2.3,71,0.00,CLR,CLR,0.00,WeatherDisplay:10.37,2013-05-10 13:17:00,
2013-05-10 09:22:00,78.7,67.7,28.64,SW,221,0.0,0.0,69,0.00,CLR,CLR,0.00,WeatherDisplay:10.37,2013-05-10 13:22:00,
2013-05-10 09:27:00,79.0,66.7,28.63,South,170,3.5,3.5,66,0.00,CLR,CLR,0.00,WeatherDisplay:10.37,2013-05-10 13:27:00,
2013-05-10 09:32:00,79.3,68.7,28.63,South,170,3.5,3.5,70,0.00,CLR,CLR,0.00,WeatherDisplay:10.37,2013-05-10 13:32:00,
2013-05-10 09:38:00,79.8,69.6,28.61,South,170,1.2,1.2,71,0.00,CLR,CLR,0.00,WeatherDisplay:10.37,2013-05-10 13:38:00,
2013-05-10 09:43:00,80.2,69.1,28.62,South,170,2.3,2.3,69,0.00,CLR,CLR,0.00,WeatherDisplay:10.37,2013-05-10 13:43:00,
2013-05-10 09:48:00,80.5,67.6,28.62,South,170,2.3,2.3,65,0.00,CLR,CLR,0.00,WeatherDisplay:10.37,2013-05-10 13:48:00,
2013-05-10 09:53:00,80.5,67.6,28.63,ESE,103,2.3,2.3,65,0.00,CLR,CLR,0.00,WeatherDisplay:10.37,2013-05-10 13:53:00,
2013-05-10 09:58:00,80.6,69.1,28.65,ESE,105,1.2,1.2,68,0.00,CLR,CLR,0.00,WeatherDisplay:10.37,2013-05-10 13:58:00,
2013-05-10 10:04:00,80.7,68.3,28.66,SSE,159,4.6,4.6,66,0.00,CLR,CLR,0.00,WeatherDisplay:10.37,2013-05-10 14:04:00,
2013-05-10 10:09:00,80.7,68.3,28.64,SSE,159,3.5,3.5,66,0.00,CLR,CLR,0.00,WeatherDisplay:10.37,2013-05-10 14:09:00,
2013-05-10 10:14:00,80.7,67.8,28.66,South,173,3.5,3.5,65,0.00,CLR,CLR,0.00,WeatherDisplay:10.37,2013-05-10 14:14:00,
2013-05-10 10:19:00,80.4,68.0,28.65,SSW,201,2.0,2.0,66,0.00,CLR,CLR,0.00,WeatherDisplay:10.37,2013-05-10 14:19:00,
2013-05-10 10:24:00,80.3,67.9,28.66,SSE,158,6.0,6.0,66,0.00,CLR,CLR,0.00,WeatherDisplay:10.37,2013-05-10 14:24:00,
2013-05-10 10:29:00,80.1,67.7,28.68,SSW,193,3.5,3.5,66,0.00,CLR,CLR,0.00,WeatherDisplay:10.37,2013-05-10 14:29:00,
2013-05-10 10:35:00,80.4,67.6,28.68,South,191,3.5,3.5,65,0.00,CLR,CLR,0.00,WeatherDisplay:10.37,2013-05-10 14:35:00,
2013-05-10 10:40:00,80.2,68.2,28.66,SSE,154,5.0,5.0,67,0.00,CLR,CLR,0.00,WeatherDisplay:10.37,2013-05-10 14:40:00,
2013-05-10 10:45:00,80.2,67.4,28.69,East,86,3.5,3.5,65,0.00,CLR,CLR,0.00,WeatherDisplay:10.37,2013-05-10 14:45:00,
2013-05-10 10:50:00,80.1,67.7,28.70,South,183,4.6,4.6,66,0.00,CLR,CLR,0.00,WeatherDisplay:10.37,2013-05-10 14:50:00,
2013-05-10 10:55:00,79.9,67.5,28.68,SSE,157,4.0,4.0,66,0.00,CLR,CLR,0.00,WeatherDisplay:10.37,2013-05-10 14:55:00,
2013-05-10 11:00:00,79.8,67.4,28.69,South,191,8.0,8.0,66,0.00,CLR,CLR,0.00,WeatherDisplay:10.37,2013-05-10 15:00:00,
2013-05-10 11:05:00,79.3,65.6,28.70,South,171,8.1,8.1,63,0.00,CLR,CLR,0.00,WeatherDisplay:10.37,2013-05-10 15:05:00,
2013-05-10 11:10:00,78.8,66.5,28.69,South,169,5.8,5.8,66,0.00,CLR,CLR,0.00,WeatherDisplay:10.37,2013-05-10 15:10:00,
2013-05-10 11:15:00,78.7,66.4,28.71,South,183,4.6,4.6,66,0.00,CLR,CLR,0.00,WeatherDisplay:10.37,2013-05-10 15:15:00,
2013-05-10 11:21:00,79.0,66.7,28.71,SSW,199,5.8,5.8,66,0.00,CLR,CLR,0.00,WeatherDisplay:10.37,2013-05-10 15:21:00,
2013-05-10 11:26:00,79.1,67.6,28.61,SW,218,5.8,5.8,68,0.00,CLR,CLR,0.00,WeatherDisplay:10.37,2013-05-10 15:26:00,
2013-05-10 11:31:00,79.2,67.3,28.59,ESE,118,3.5,3.5,67,0.00,CLR,CLR,0.00,WeatherDisplay:10.37,2013-05-10 15:31:00,
2013-05-10 11:36:00,79.3,69.1,28.69,South,171,7.0,7.0,71,0.00,CLR,CLR,0.00,WeatherDisplay:10.37,2013-05-10 15:36:00,
2013-05-10 11:41:00,79.3,67.8,28.67,South,172,5.8,5.8,68,0.00,CLR,CLR,0.00,WeatherDisplay:10.37,2013-05-10 15:41:00,
2013-05-10 11:46:00,79.6,68.1,28.68,South,176,5.8,5.8,68,0.00,CLR,CLR,0.00,WeatherDisplay:10.37,2013-05-10 15:46:00,
2013-05-10 11:52:00,80.1,69.0,28.66,South,191,9.2,9.2,69,0.00,CLR,CLR,0.00,WeatherDisplay:10.37,2013-05-10 15:52:00,
2013-05-10 11:57:00,80.3,69.2,28.62,South,189,8.1,8.1,69,0.00,CLR,CLR,0.00,WeatherDisplay:10.37,2013-05-10 15:57:00,
2013-05-10 12:02:00,80.1,68.2,28.60,SSW,193,7.0,7.0,67,0.00,CLR,CLR,0.00,WeatherDisplay:10.37,2013-05-10 16:02:00,
2013-05-10 12:07:00,79.6,68.1,28.62,South,170,11.5,11.5,68,0.00,CLR,CLR,0.00,WeatherDisplay:10.37,2013-05-10 16:07:00,
2013-05-10 12:12:00,79.5,68.9,28.65,SW,214,5.8,5.8,70,0.00,CLR,CLR,0.00,WeatherDisplay:10.37,2013-05-10 16:12:00,
2013-05-10 12:17:00,79.8,70.0,28.68,SSW,208,9.0,9.0,72,0.00,CLR,CLR,0.00,WeatherDisplay:10.37,2013-05-10 16:17:00,
2013-05-10 12:22:00,80.4,69.3,28.62,South,173,8.1,8.1,69,0.00,CLR,CLR,0.00,WeatherDisplay:10.37,2013-05-10 16:22:00,
2013-05-10 12:28:00,80.8,69.7,28.63,SSE,162,6.9,6.9,69,0.00,CLR,CLR,0.00,WeatherDisplay:10.37,2013-05-10 16:28:00,
2013-05-10 12:33:00,80.9,68.0,28.62,South,175,5.0,5.0,65,0.00,CLR,CLR,0.00,WeatherDisplay:10.37,2013-05-10 16:33:00,
2013-05-10 12:38:00,81.0,69.0,28.60,SSW,200,9.0,9.0,67,0.00,CLR,CLR,0.00,WeatherDisplay:10.37,2013-05-10 16:38:00,
2013-05-10 12:43:00,81.1,68.7,28.55,South,189,6.9,6.9,66,0.00,CLR,CLR,0.00,WeatherDisplay:10.37,2013-05-10 16:43:00,
2013-05-10 12:48:00,81.3,67.5,28.54,South,187,8.0,8.0,63,0.00,CLR,CLR,0.00,WeatherDisplay:10.37,2013-05-10 16:48:00,
2013-05-10 12:53:00,81.2,66.5,28.53,SSW,209,7.0,7.0,61,0.00,CLR,CLR,0.00,WeatherDisplay:10.37,2013-05-10 16:53:00,
2013-05-10 12:58:00,81.3,68.4,28.58,South,188,6.9,6.9,65,0.00,CLR,CLR,0.00,WeatherDisplay:10.37,2013-05-10 16:58:00,
2013-05-10 13:03:00,81.3,67.0,28.59,SSE,147,3.5,3.5,62,0.00,CLR,CLR,0.00,WeatherDisplay:10.37,2013-05-10 17:03:00,
2013-05-10 13:09:00,81.2,67.4,28.58,South,182,5.8,5.8,63,0.00,CLR,CLR,0.00,WeatherDisplay:10.37,2013-05-10 17:09:00,
2013-05-10 13:14:00,81.2,67.9,28.51,SSW,208,11.5,11.5,64,0.00,CLR,CLR,0.00,WeatherDisplay:10.37,2013-05-10 17:14:00,
2013-05-10 13:19:00,81.4,67.1,28.61,South,188,8.1,8.1,62,0.00,CLR,CLR,0.00,WeatherDisplay:10.37,2013-05-10 17:19:00,
2013-05-10 13:24:00,81.7,69.2,28.61,SW,217,11.5,11.5,66,0.00,CLR,CLR,0.00,WeatherDisplay:10.37,2013-05-10 17:24:00,
2013-05-10 13:29:00,81.8,67.5,28.67,SSW,209,5.8,5.8,62,0.00,CLR,CLR,0.00,WeatherDisplay:10.37,2013-05-10 17:29:00,
2013-05-10 13:34:00,82.0,68.2,28.58,South,170,10.0,10.0,63,0.00,CLR,CLR,0.00,WeatherDisplay:10.37,2013-05-10 17:34:00,
2013-05-10 13:39:00,81.8,67.0,28.53,SSW,213,18.4,18.4,61,0.00,CLR,CLR,0.00,WeatherDisplay:10.37,2013-05-10 17:39:00,
2013-05-10 13:44:00,81.8,66.6,28.51,South,188,16.1,16.1,60,0.00,CLR,CLR,0.00,WeatherDisplay:10.37,2013-05-10 17:44:00,
2013-05-10 13:50:00,81.3,66.1,28.49,South,188,15.0,15.0,60,0.00,CLR,CLR,0.00,WeatherDisplay:10.37,2013-05-10 17:50:00,
2013-05-10 13:55:00,81.2,66.5,28.49,SW,225,11.5,11.5,61,0.00,CLR,CLR,0.00,WeatherDisplay:10.37,2013-05-10 17:55:00,
2013-05-10 14:00:00,81.3,66.1,28.51,South,173,11.5,11.5,60,0.00,CLR,CLR,0.00,WeatherDisplay:10.37,2013-05-10 18:00:00,
2013-05-10 14:05:00,81.2,66.5,28.50,South,176,11.5,11.5,61,0.00,CLR,CLR,0.00,WeatherDisplay:10.37,2013-05-10 18:05:00,
2013-05-10 14:10:00,81.0,65.3,28.50,SSW,207,10.4,10.4,59,0.00,CLR,CLR,0.00,WeatherDisplay:10.37,2013-05-10 18:10:00,
2013-05-10 14:16:00,80.9,66.2,28.52,SSE,165,9.2,9.2,61,0.00,CLR,CLR,0.00,WeatherDisplay:10.37,2013-05-10 18:16:00,
2013-05-10 14:21:00,80.9,66.7,28.51,SW,215,8.1,8.1,62,0.00,CLR,CLR,0.00,WeatherDisplay:10.37,2013-05-10 18:21:00,
2013-05-10 14:26:00,81.0,65.3,28.51,South,183,13.8,13.8,59,0.00,CLR,CLR,0.00,WeatherDisplay:10.37,2013-05-10 18:26:00,
2013-05-10 14:31:00,81.1,66.4,28.63,South,190,11.5,11.5,61,0.00,CLR,CLR,0.00,WeatherDisplay:10.37,2013-05-10 18:31:00,
2013-05-10 14:36:00,81.2,66.0,28.60,South,185,13.8,13.8,60,0.00,CLR,CLR,0.00,WeatherDisplay:10.37,2013-05-10 18:36:00,
2013-05-10 14:42:00,81.1,66.4,28.57,South,191,11.5,11.5,61,0.00,CLR,CLR,0.00,WeatherDisplay:10.37,2013-05-10 18:42:00,
2013-05-10 14:47:00,81.1,65.4,28.49,South,176,12.7,12.7,59,0.00,CLR,CLR,0.00,WeatherDisplay:10.37,2013-05-10 18:47:00,
2013-05-10 14:52:00,80.8,66.1,28.52,SSE,162,11.5,11.5,61,0.00,CLR,CLR,0.00,WeatherDisplay:10.37,2013-05-10 18:52:00,
2013-05-10 14:57:00,80.8,65.6,28.55,South,185,4.6,4.6,60,0.00,CLR,CLR,0.00,WeatherDisplay:10.37,2013-05-10 18:57:00,
2013-05-10 15:02:00,80.7,66.5,28.44,SSW,210,11.5,11.5,62,0.00,CLR,CLR,0.00,WeatherDisplay:10.37,2013-05-10 19:02:00,
2013-05-10 15:07:00,80.7,66.9,28.50,South,186,11.5,11.5,63,0.00,CLR,CLR,0.00,WeatherDisplay:10.37,2013-05-10 19:07:00,
2013-05-10 15:13:00,80.5,66.3,28.44,South,181,9.2,9.2,62,0.00,CLR,CLR,0.00,WeatherDisplay:10.37,2013-05-10 19:13:00,
2013-05-10 15:18:00,80.4,67.6,28.48,South,179,10.0,10.0,65,0.00,CLR,CLR,0.00,WeatherDisplay:10.37,2013-05-10 19:18:00,
2013-05-10 15:23:00,80.5,66.3,28.50,South,169,11.5,11.5,62,0.00,CLR,CLR,0.00,WeatherDisplay:10.37,2013-05-10 19:23:00,
2013-05-10 15:28:00,80.6,66.4,28.46,SSE,165,13.8,13.8,62,0.00,CLR,CLR,0.00,WeatherDisplay:10.37,2013-05-10 19:28:00,
2013-05-10 15:33:00,80.6,65.9,28.50,SSE,168,15.0,15.0,61,0.00,CLR,CLR,0.00,WeatherDisplay:10.37,2013-05-10 19:33:00,
2013-05-10 15:38:00,80.5,66.3,28.48,South,173,16.1,16.1,62,0.00,CLR,CLR,0.00,WeatherDisplay:10.37,2013-05-10 19:38:00,
2013-05-10 15:44:00,80.5,67.2,28.45,South,186,10.4,10.4,64,0.00,CLR,CLR,0.00,WeatherDisplay:10.37,2013-05-10 19:44:00,
2013-05-10 15:49:00,80.5,66.3,28.51,South,177,11.5,11.5,62,0.00,CLR,CLR,0.00,WeatherDisplay:10.37,2013-05-10 19:49:00,
2013-05-10 15:54:00,80.4,66.6,28.45,South,170,11.5,11.5,63,0.00,CLR,CLR,0.00,WeatherDisplay:10.37,2013-05-10 19:54:00,
2013-05-10 15:59:00,80.3,67.0,28.46,SSE,168,11.5,11.5,64,0.00,CLR,CLR,0.00,WeatherDisplay:10.37,2013-05-10 19:59:00,
2013-05-10 16:05:00,80.4,65.2,28.59,South,184,13.0,13.0,60,0.00,CLR,CLR,0.00,WeatherDisplay:10.37,2013-05-10 20:05:00,
2013-05-10 16:10:00,80.3,66.1,28.49,South,183,11.5,11.5,62,0.00,CLR,CLR,0.00,WeatherDisplay:10.37,2013-05-10 20:10:00,
2013-05-10 16:15:00,80.2,65.5,28.52,SSE,151,15.0,15.0,61,0.00,CLR,CLR,0.00,WeatherDisplay:10.37,2013-05-10 20:15:00,
2013-05-10 16:20:00,80.1,65.9,28.43,SW,218,12.7,12.7,62,0.00,CLR,CLR,0.00,WeatherDisplay:10.37,2013-05-10 20:20:00,
2013-05-10 16:26:00,80.2,66.5,28.43,SW,214,10.4,10.4,63,0.00,CLR,CLR,0.00,WeatherDisplay:10.37,2013-05-10 20:26:00,
2013-05-10 16:31:00,80.2,66.0,28.49,South,185,15.0,15.0,62,0.00,CLR,CLR,0.00,WeatherDisplay:10.37,2013-05-10 20:31:00,
2013-05-10 16:36:00,80.0,65.3,28.46,South,191,11.5,11.5,61,0.00,CLR,CLR,0.00,WeatherDisplay:10.37,2013-05-10 20:36:00,
2013-05-10 16:41:00,80.2,66.0,28.52,South,171,11.5,11.5,62,0.00,CLR,CLR,0.00,WeatherDisplay:10.37,2013-05-10 20:41:00,
2013-05-10 16:46:00,80.1,65.4,28.43,SSW,206,13.8,13.8,61,0.00,CLR,CLR,0.00,WeatherDisplay:10.37,2013-05-10 20:46:00,
2013-05-10 16:52:00,79.6,65.4,28.39,SSE,158,12.7,12.7,62,0.00,CLR,CLR,0.00,WeatherDisplay:10.37,2013-05-10 20:52:00,
2013-05-10 16:57:00,79.1,65.4,28.46,South,189,9.2,9.2,63,0.00,CLR,CLR,0.00,WeatherDisplay:10.37,2013-05-10 20:57:00,
2013-05-10 17:02:00,79.1,65.4,28.48,SSW,207,15.0,15.0,63,0.00,CLR,CLR,0.00,WeatherDisplay:10.37,2013-05-10 21:02:00,
2013-05-10 17:07:00,78.9,65.2,28.44,South,169,17.3,17.3,63,0.00,CLR,CLR,0.00,WeatherDisplay:10.37,2013-05-10 21:07:00,
2013-05-10 17:12:00,78.7,65.5,28.42,South,188,11.5,11.5,64,0.00,CLR,CLR,0.00,WeatherDisplay:10.37,2013-05-10 21:12:00,
2013-05-10 17:18:00,78.4,65.7,28.46,South,189,12.7,12.7,65,0.00,CLR,CLR,0.00,WeatherDisplay:10.37,2013-05-10 21:18:00,
2013-05-10 17:23:00,78.2,65.5,28.43,South,177,12.0,12.0,65,0.00,CLR,CLR,0.00,WeatherDisplay:10.37,2013-05-10 21:23:00,
2013-05-10 17:28:00,78.0,65.3,28.43,South,183,12.0,12.0,65,0.00,CLR,CLR,0.00,WeatherDisplay:10.37,2013-05-10 21:28:00,
2013-05-10 17:33:00,77.8,65.5,28.47,South,174,9.2,9.2,66,0.00,CLR,CLR,0.00,WeatherDisplay:10.37,2013-05-10 21:33:00,
2013-05-10 17:38:00,77.6,65.3,28.47,SSW,198,6.9,6.9,66,0.00,CLR,CLR,0.00,WeatherDisplay:10.37,2013-05-10 21:38:00,
2013-05-10 17:43:00,77.5,65.2,28.47,South,188,11.5,11.5,66,0.00,CLR,CLR,0.00,WeatherDisplay:10.37,2013-05-10 21:43:00,
2013-05-10 17:48:00,77.4,65.1,28.47,South,172,11.5,11.5,66,0.00,CLR,CLR,0.00,WeatherDisplay:10.37,2013-05-10 21:48:00,
2013-05-10 17:53:00,77.2,65.4,28.48,SSW,194,11.5,11.5,67,0.00,CLR,CLR,0.00,WeatherDisplay:10.37,2013-05-10 21:53:00,
2013-05-10 17:58:00,77.1,65.7,28.51,South,179,6.9,6.9,68,0.00,CLR,CLR,0.00,WeatherDisplay:10.37,2013-05-10 21:58:00,
2013-05-10 18:01:00,76.9,65.1,28.47,SW,215,10.4,10.4,67,0.00,CLR,CLR,0.00,WeatherDisplay:10.37,2013-05-10 22:01:00,
2013-05-10 18:02:00,76.9,65.5,28.40,SSW,198,8.1,8.1,68,0.00,CLR,CLR,0.00,WeatherDisplay:10.37,2013-05-10 22:02:00,
2013-05-10 18:07:00,76.6,65.2,28.40,South,191,6.9,6.9,68,0.00,CLR,CLR,0.00,WeatherDisplay:10.37,2013-05-10 22:07:00,
2013-05-10 18:12:00,76.4,65.5,28.39,SSE,159,5.0,5.0,69,0.00,CLR,CLR,0.00,WeatherDisplay:10.37,2013-05-10 22:12:00,
2013-05-10 18:17:00,76.2,65.3,28.39,South,188,7.0,7.0,69,0.00,CLR,CLR,0.00,WeatherDisplay:10.37,2013-05-10 22:17:00,
2013-05-10 18:23:00,75.9,65.0,28.39,South,187,5.8,5.8,69,0.00,CLR,CLR,0.00,WeatherDisplay:10.37,2013-05-10 22:23:00,
2013-05-10 18:28:00,75.7,64.8,28.39,SSW,205,5.8,5.8,69,0.00,CLR,CLR,0.00,WeatherDisplay:10.37,2013-05-10 22:28:00,
2013-05-10 18:33:00,75.6,65.1,28.39,SSW,194,5.0,5.0,70,0.00,CLR,CLR,0.00,WeatherDisplay:10.37,2013-05-10 22:33:00,
2013-05-10 18:38:00,75.4,64.9,28.39,SSW,195,8.1,8.1,70,0.00,CLR,CLR,0.00,WeatherDisplay:10.37,2013-05-10 22:38:00,
2013-05-10 18:43:00,75.2,64.7,28.40,SSW,204,6.0,6.0,70,0.00,CLR,CLR,0.00,WeatherDisplay:10.37,2013-05-10 22:43:00,
2013-05-10 18:49:00,74.9,64.9,28.39,South,179,5.8,5.8,71,0.00,CLR,CLR,0.00,WeatherDisplay:10.37,2013-05-10 22:49:00,
2013-05-10 18:54:00,74.7,64.7,28.40,SSE,163,11.0,11.0,71,0.00,CLR,CLR,0.00,WeatherDisplay:10.37,2013-05-10 22:54:00,
2013-05-10 18:59:00,74.5,64.9,28.40,SSE,160,3.5,3.5,72,0.00,CLR,CLR,0.00,WeatherDisplay:10.37,2013-05-10 22:59:00,
2013-05-10 19:04:00,74.4,64.8,28.40,SSW,204,6.9,6.9,72,0.00,CLR,CLR,0.00,WeatherDisplay:10.37,2013-05-10 23:04:00,
2013-05-10 19:09:00,74.2,64.6,28.39,South,176,6.0,6.0,72,0.00,CLR,CLR,0.00,WeatherDisplay:10.37,2013-05-10 23:09:00,
2013-05-10 19:14:00,74.0,64.8,28.39,South,190,3.5,3.5,73,0.00,CLR,CLR,0.00,WeatherDisplay:10.37,2013-05-10 23:14:00,
2013-05-10 19:20:00,73.7,64.5,28.39,South,183,2.3,2.4,73,0.00,CLR,CLR,0.00,WeatherDisplay:10.37,2013-05-10 23:20:00,
2013-05-10 19:25:00,73.5,64.7,28.39,South,184,3.5,3.5,74,0.00,CLR,CLR,0.00,WeatherDisplay:10.37,2013-05-10 23:25:00,
2013-05-10 19:30:00,73.3,64.5,28.39,South,179,5.8,5.8,74,0.00,CLR,CLR,0.00,WeatherDisplay:10.37,2013-05-10 23:30:00,
2013-05-10 19:35:00,73.1,64.3,28.40,South,179,4.6,4.6,74,0.00,CLR,CLR,0.00,WeatherDisplay:10.37,2013-05-10 23:35:00,
2013-05-10 19:40:00,72.9,64.5,28.40,South,174,3.5,3.5,75,0.00,CLR,CLR,0.00,WeatherDisplay:10.37,2013-05-10 23:40:00,
2013-05-10 19:45:00,72.6,64.2,28.40,South,175,3.5,3.5,75,0.00,CLR,CLR,0.00,WeatherDisplay:10.37,2013-05-10 23:45:00,
2013-05-10 19:50:00,72.4,64.0,28.40,South,175,3.5,3.5,75,0.00,CLR,CLR,0.00,WeatherDisplay:10.37,2013-05-10 23:50:00,
2013-05-10 19:55:00,72.1,64.1,28.40,South,176,3.5,3.5,76,0.00,CLR,CLR,0.00,WeatherDisplay:10.37,2013-05-10 23:55:00,
2013-05-10 20:00:00,71.8,63.8,28.40,SSE,150,2.3,2.3,76,0.00,CLR,CLR,0.00,WeatherDisplay:10.37,2013-05-11 00:00:00,
2013-05-10 20:06:00,71.7,63.7,28.41,South,172,3.5,3.5,76,0.00,CLR,CLR,0.00,WeatherDisplay:10.37,2013-05-11 00:06:00,
2013-05-10 20:11:00,71.6,63.6,28.41,SSE,166,9.2,9.2,76,0.00,CLR,CLR,0.00,WeatherDisplay:10.37,2013-05-11 00:11:00,
2013-05-10 20:16:00,71.5,63.5,28.41,SSE,152,6.9,6.9,76,0.00,CLR,CLR,0.00,WeatherDisplay:10.37,2013-05-11 00:16:00,
2013-05-10 20:21:00,71.4,63.8,28.41,South,183,6.9,6.9,77,0.00,CLR,CLR,0.00,WeatherDisplay:10.37,2013-05-11 00:21:00,
2013-05-10 20:26:00,71.3,63.7,28.41,South,181,3.5,3.5,77,0.00,CLR,CLR,0.00,WeatherDisplay:10.37,2013-05-11 00:26:00,
2013-05-10 20:31:00,71.2,63.6,28.41,SSE,162,4.6,4.6,77,0.00,CLR,CLR,0.00,WeatherDisplay:10.37,2013-05-11 00:31:00,
2013-05-10 20:37:00,70.9,63.7,28.41,SSW,198,9.2,9.2,78,0.00,CLR,CLR,0.00,WeatherDisplay:10.37,2013-05-11 00:37:00,
2013-05-10 20:42:00,70.8,63.6,28.41,South,180,9.2,9.2,78,0.00,CLR,CLR,0.00,WeatherDisplay:10.37,2013-05-11 00:42:00,
2013-05-10 20:47:00,70.7,63.5,28.41,SE,144,5.8,5.8,78,0.00,CLR,CLR,0.00,WeatherDisplay:10.37,2013-05-11 00:47:00,
2013-05-10 20:52:00,70.8,63.2,28.41,South,178,9.2,9.2,77,0.00,CLR,CLR,0.00,WeatherDisplay:10.37,2013-05-11 00:52:00,
2013-05-10 20:57:00,70.8,63.2,28.41,South,183,11.5,11.5,77,0.00,CLR,CLR,0.00,WeatherDisplay:10.37,2013-05-11 00:57:00,
2013-05-10 21:02:00,70.8,63.2,28.41,SSW,202,3.5,3.5,77,0.00,CLR,CLR,0.00,WeatherDisplay:10.37,2013-05-11 01:02:00,
2013-05-10 21:07:00,70.6,63.4,28.41,South,190,8.1,8.1,78,0.00,CLR,CLR,0.00,WeatherDisplay:10.37,2013-05-11 01:07:00,
2013-05-10 21:12:00,70.6,63.4,28.41,SSW,196,3.5,3.5,78,0.00,CLR,CLR,0.00,WeatherDisplay:10.37,2013-05-11 01:12:00,
2013-05-10 21:18:00,70.5,63.3,28.42,SSW,206,5.8,5.8,78,0.00,CLR,CLR,0.00,WeatherDisplay:10.37,2013-05-11 01:18:00,
2013-05-10 21:23:00,70.6,63.0,28.41,South,170,2.3,2.3,77,0.00,CLR,CLR,0.00,WeatherDisplay:10.37,2013-05-11 01:23:00,
2013-05-10 21:28:00,70.5,62.9,28.42,SSW,200,3.0,3.0,77,0.00,CLR,CLR,0.00,WeatherDisplay:10.37,2013-05-11 01:28:00,
2013-05-10 21:33:00,70.3,63.1,28.42,West,279,5.0,5.0,78,0.00,CLR,CLR,0.00,WeatherDisplay:10.37,2013-05-11 01:33:00,
2013-05-10 21:38:00,70.0,62.8,28.42,NW,319,2.3,2.3,78,0.00,CLR,CLR,0.00,WeatherDisplay:10.37,2013-05-11 01:38:00,
2013-05-10 21:43:00,69.7,62.5,28.42,NW,319,2.3,0.0,78,0.00,CLR,CLR,0.00,WeatherDisplay:10.37,2013-05-11 01:43:00,
2013-05-10 21:48:00,69.5,62.3,28.42,NW,319,2.3,2.3,78,0.00,CLR,CLR,0.00,WeatherDisplay:10.37,2013-05-11 01:48:00,
2013-05-10 21:53:00,69.3,62.5,28.42,NW,319,2.3,0.0,79,0.00,CLR,CLR,0.00,WeatherDisplay:10.37,2013-05-11 01:53:00,
2013-05-10 21:59:00,69.0,62.6,28.42,NW,319,0.0,0.0,80,0.00,CLR,CLR,0.00,WeatherDisplay:10.37,2013-05-11 01:59:00,
2013-05-10 22:04:00,68.8,62.4,28.42,NW,319,0.0,0.0,80,0.00,CLR,CLR,0.00,WeatherDisplay:10.37,2013-05-11 02:04:00,
2013-05-10 22:09:00,68.7,62.6,28.42,NW,319,0.0,0.0,81,0.00,CLR,CLR,0.00,WeatherDisplay:10.37,2013-05-11 02:09:00,
2013-05-10 22:14:00,68.5,62.4,28.42,NW,319,0.0,0.0,81,0.00,CLR,CLR,0.00,WeatherDisplay:10.37,2013-05-11 02:14:00,
2013-05-10 22:19:00,68.3,62.6,28.42,NW,319,0.0,0.0,82,0.00,CLR,CLR,0.00,WeatherDisplay:10.37,2013-05-11 02:19:00,
2013-05-10 22:24:00,68.3,62.9,28.42,NW,319,0.0,0.0,83,0.00,CLR,CLR,0.00,WeatherDisplay:10.37,2013-05-11 02:24:00,
2013-05-10 22:30:00,68.2,62.8,28.42,NW,319,2.3,2.3,83,0.00,CLR,CLR,0.00,WeatherDisplay:10.37,2013-05-11 02:30:00,
2013-05-10 22:35:00,68.0,63.3,28.42,NW,319,2.0,2.0,85,0.00,CLR,CLR,0.00,WeatherDisplay:10.37,2013-05-11 02:35:00,
2013-05-10 22:40:00,67.9,62.9,28.41,NW,319,1.2,1.2,84,0.00,CLR,CLR,0.00,WeatherDisplay:10.37,2013-05-11 02:40:00,
2013-05-10 22:45:00,67.8,63.1,28.41,NW,319,1.2,0.0,85,0.00,CLR,CLR,0.00,WeatherDisplay:10.37,2013-05-11 02:45:00,
2013-05-10 22:51:00,67.7,62.7,28.40,NW,319,0.0,0.0,84,0.00,CLR,CLR,0.00,WeatherDisplay:10.37,2013-05-11 02:51:00,
2013-05-10 22:56:00,67.6,62.6,28.40,NW,319,0.0,0.0,84,0.00,CLR,CLR,0.00,WeatherDisplay:10.37,2013-05-11 02:56:00,
2013-05-10 23:01:00,67.6,62.3,28.40,NW,319,0.0,0.0,83,0.00,CLR,CLR,0.00,WeatherDisplay:10.37,2013-05-11 03:01:00,
2013-05-10 23:06:00,67.5,62.5,28.39,NW,319,0.0,0.0,84,0.00,CLR,CLR,0.00,WeatherDisplay:10.37,2013-05-11 03:06:00,
2013-05-10 23:11:00,67.4,62.4,28.38,NW,319,0.0,0.0,84,0.00,CLR,CLR,0.00,WeatherDisplay:10.37,2013-05-11 03:11:00,
2013-05-10 23:16:00,67.3,62.0,28.38,NW,319,0.0,0.0,83,0.00,CLR,CLR,0.00,WeatherDisplay:10.37,2013-05-11 03:16:00,
2013-05-10 23:21:00,67.2,62.2,28.38,NW,319,0.0,0.0,84,0.00,CLR,CLR,0.00,WeatherDisplay:10.37,2013-05-11 03:21:00,
2013-05-10 23:27:00,67.1,62.1,28.38,NW,319,1.2,1.2,84,0.00,CLR,CLR,0.00,WeatherDisplay:10.37,2013-05-11 03:27:00,
2013-05-10 23:32:00,66.9,62.2,28.38,NW,319,2.3,2.3,85,0.00,CLR,CLR,0.00,WeatherDisplay:10.37,2013-05-11 03:32:00,
2013-05-10 23:37:00,66.7,62.7,28.39,NW,319,0.0,0.0,87,0.00,CLR,CLR,0.00,WeatherDisplay:10.37,2013-05-11 03:37:00,
2013-05-10 23:42:00,66.6,62.9,28.39,NW,319,3.5,3.5,88,0.00,CLR,CLR,0.00,WeatherDisplay:10.37,2013-05-11 03:42:00,
2013-05-10 23:47:00,66.3,62.6,28.40,NW,319,2.3,2.3,88,0.00,CLR,CLR,0.00,WeatherDisplay:10.37,2013-05-11 03:47:00,
2013-05-10 23:53:00,66.2,62.9,28.40,South,182,8.1,8.1,89,0.00,CLR,CLR,0.00,WeatherDisplay:10.37,2013-05-11 03:53:00,
2013-05-10 23:58:00,66.3,63.0,28.40,SSE,168,4.6,4.6,89,0.00,CLR,CLR,0.00,WeatherDisplay:10.37,2013-05-11 03:58:00,